Time;durP1;ratioP1;P1;durP2;ratioP2;P2;SDS_P1;SDS_P2;PMS_P1;PMS_P2;Temp;Humidity;BMP_temperature;BMP_pressure;BME280_temperature;BME280_humidity;BME280_pressure;Samples;Min_cycle;Max_cycle;Signal;HPM_P1;HPM_P2
2022/05/23 00:02:08;;;;;;;3.40;2.00;;;23.50;95.30;;;;;;5052030;28;20048;-73
2022/05/23 00:04:36;;;;;;;3.92;1.95;;;23.60;95.40;;;;;;5023475;28;20168;-73
2022/05/23 00:07:03;;;;;;;5.40;2.10;;;23.70;95.30;;;;;;5023257;28;20100;-72
2022/05/23 00:09:29;;;;;;;4.70;1.98;;;23.70;95.40;;;;;;5027435;28;20071;-73
2022/05/23 00:11:55;;;;;;;4.50;2.40;;;23.70;95.40;;;;;;5022786;28;20049;-72
2022/05/23 00:14:21;;;;;;;5.22;1.80;;;23.70;95.00;;;;;;5020765;28;20065;-72
2022/05/23 00:16:49;;;;;;;5.82;2.10;;;23.60;94.10;;;;;;5039263;28;20894;-73
2022/05/23 00:19:17;;;;;;;6.72;2.17;;;23.60;94.30;;;;;;5024979;28;20099;-72
2022/05/23 00:21:46;;;;;;;3.75;1.98;;;23.50;93.80;;;;;;5038743;28;20376;-72
2022/05/23 00:24:14;;;;;;;4.05;2.00;;;23.40;94.80;;;;;;5021776;28;20041;-73
2022/05/23 00:26:43;;;;;;;4.43;2.10;;;23.40;95.70;;;;;;5018455;28;20132;-72
2022/05/23 00:29:09;;;;;;;5.85;2.10;;;23.40;95.90;;;;;;5020367;28;20069;-72
2022/05/23 00:31:35;;;;;;;5.00;2.00;;;23.40;96.20;;;;;;5033846;28;20049;-73
2022/05/23 00:36:45;;;;;;;5.13;1.92;;;23.50;96.40;;;;;;5023863;28;20092;-72
2022/05/23 00:39:11;;;;;;;3.60;1.92;;;23.40;95.10;;;;;;5037645;28;20049;-72
2022/05/23 00:44:34;;;;;;;10.10;2.17;;;23.40;95.10;;;;;;5023249;28;20045;-73
2022/05/23 00:47:19;;;;;;;4.25;1.65;;;23.40;94.60;;;;;;5032866;28;20076;-73
2022/05/23 00:49:46;;;;;;;4.70;1.65;;;23.30;94.10;;;;;;5016532;28;20053;-72
2022/05/23 00:52:28;;;;;;;4.05;1.63;;;23.40;94.60;;;;;;5020852;28;20125;-73
2022/05/23 00:54:58;;;;;;;4.53;1.90;;;23.30;94.80;;;;;;5038673;28;20041;-73
2022/05/23 00:57:40;;;;;;;2.85;1.85;;;23.30;95.30;;;;;;5020447;28;20033;-72
2022/05/23 01:00:08;;;;;;;4.38;1.80;;;23.30;95.50;;;;;;5021279;28;20074;-73
2022/05/23 01:02:36;;;;;;;5.50;2.00;;;23.40;95.50;;;;;;5034876;28;20037;-73
2022/05/23 01:05:08;;;;;;;3.08;2.00;;;23.40;95.30;;;;;;5026272;28;20049;-73
2022/05/23 01:07:35;;;;;;;4.90;2.05;;;23.30;95.20;;;;;;5024414;28;20069;-73
2022/05/23 01:10:01;;;;;;;4.90;1.98;;;23.30;94.90;;;;;;5025204;28;20042;-73
2022/05/23 01:12:28;;;;;;;5.32;1.80;;;23.30;94.30;;;;;;5023793;28;20048;-73
2022/05/23 01:14:58;;;;;;;3.78;1.55;;;23.30;94.60;;;;;;5021826;28;20042;-72
2022/05/23 01:17:26;;;;;;;4.43;1.70;;;23.30;93.50;;;;;;5036161;28;20038;-73
2022/05/23 01:19:52;;;;;;;4.88;1.80;;;23.40;93.60;;;;;;5026226;28;20038;-73
2022/05/23 01:22:42;;;;;;;4.80;1.52;;;23.30;93.50;;;;;;5010940;28;20052;-73
2022/05/23 01:25:18;;;;;;;4.78;1.77;;;23.30;93.70;;;;;;5021757;28;20034;-72
2022/05/23 01:27:46;;;;;;;3.17;1.60;;;23.30;92.70;;;;;;5026143;28;20061;-73
2022/05/23 01:30:14;;;;;;;4.97;1.90;;;23.30;92.80;;;;;;5028599;28;20037;-73
2022/05/23 01:32:40;;;;;;;3.90;1.85;;;23.30;92.80;;;;;;5023276;28;20038;-72
2022/05/23 01:35:10;;;;;;;5.45;1.75;;;23.30;93.00;;;;;;5022390;28;20052;-73
2022/05/23 01:37:37;;;;;;;5.45;2.30;;;23.40;92.90;;;;;;5022521;28;20037;-72
2022/05/23 01:40:06;;;;;;;6.97;2.03;;;23.50;92.80;;;;;;5023413;28;20547;-73
2022/05/23 01:42:32;;;;;;;3.15;1.65;;;23.40;92.80;;;;;;5057150;28;20476;-73
2022/05/23 01:44:58;;;;;;;6.47;2.00;;;23.40;92.80;;;;;;5035354;28;20100;-73
2022/05/23 01:47:24;;;;;;;5.88;1.80;;;23.60;93.10;;;;;;5024177;28;20053;-73
2022/05/23 01:49:50;;;;;;;7.22;2.35;;;23.60;92.70;;;;;;5021200;28;20490;-72
2022/05/23 01:52:16;;;;;;;5.03;1.95;;;23.60;92.80;;;;;;5037558;28;20447;-73
2022/05/23 01:54:42;;;;;;;4.25;1.95;;;23.60;92.60;;;;;;5020435;28;20033;-72
2022/05/23 01:57:10;;;;;;;6.90;2.38;;;23.60;92.70;;;;;;5020492;28;20484;-72
2022/05/23 02:02:21;;;;;;;3.70;2.03;;;23.40;93.30;;;;;;5020824;28;20049;-73
2022/05/23 02:04:48;;;;;;;7.20;2.08;;;23.40;93.70;;;;;;5022897;28;20046;-72
2022/05/23 02:07:15;;;;;;;6.15;2.35;;;23.30;93.90;;;;;;5042704;28;20539;-72
2022/05/23 02:09:42;;;;;;;5.05;2.35;;;23.20;93.90;;;;;;5022251;28;20042;-73
2022/05/23 02:12:10;;;;;;;4.25;1.92;;;23.10;94.10;;;;;;5018621;28;20061;-72
2022/05/23 02:14:38;;;;;;;5.47;2.28;;;23.10;94.20;;;;;;5036757;28;20065;-72
2022/05/23 02:17:08;;;;;;;5.05;2.17;;;23.00;94.20;;;;;;5036234;28;20522;-73
2022/05/23 02:19:34;;;;;;;4.28;2.38;;;22.90;94.30;;;;;;5022593;28;20125;-73
2022/05/23 02:22:00;;;;;;;9.05;2.53;;;22.90;94.50;;;;;;5020115;28;20448;-72
2022/05/23 02:24:26;;;;;;;5.70;2.40;;;22.90;94.60;;;;;;5017211;28;20034;-72
2022/05/23 02:26:51;;;;;;;6.13;2.78;;;22.80;94.70;;;;;;5022140;28;20084;-72
2022/05/23 02:29:18;;;;;;;9.57;2.42;;;22.80;95.00;;;;;;5018413;28;20045;-73
2022/05/23 02:31:44;;;;;;;6.07;2.38;;;22.80;95.00;;;;;;5019846;28;20034;-72
2022/05/23 02:34:10;;;;;;;7.10;2.42;;;22.80;94.90;;;;;;5035324;28;20042;-72
2022/05/23 02:36:37;;;;;;;6.07;2.53;;;22.80;95.00;;;;;;5021955;28;20038;-73
2022/05/23 02:39:05;;;;;;;5.85;2.30;;;22.80;95.10;;;;;;5037204;28;20093;-72
2022/05/23 02:41:32;;;;;;;4.97;2.08;;;22.70;95.00;;;;;;5021997;28;20072;-73
2022/05/23 02:43:59;;;;;;;6.97;2.58;;;22.70;95.20;;;;;;5018303;28;20129;-72
2022/05/23 02:46:25;;;;;;;4.40;2.20;;;22.60;95.50;;;;;;5033101;28;20126;-73
2022/05/23 02:48:51;;;;;;;7.32;2.85;;;22.60;95.60;;;;;;5027346;28;20073;-73
2022/05/23 02:51:18;;;;;;;7.38;2.45;;;22.60;95.70;;;;;;5023461;28;20045;-73
2022/05/23 02:53:44;;;;;;;7.13;2.30;;;22.50;95.80;;;;;;5020192;28;20052;-73
2022/05/23 02:56:10;;;;;;;8.70;2.53;;;22.50;95.90;;;;;;5019863;28;20501;-72
2022/05/23 02:58:37;;;;;;;7.43;2.70;;;22.50;95.90;;;;;;5021295;28;20042;-72
2022/05/23 03:01:03;;;;;;;4.82;2.72;;;22.50;95.90;;;;;;5029195;28;20042;-72
2022/05/23 03:03:29;;;;;;;4.88;2.50;;;22.50;96.20;;;;;;5035909;28;20114;-72
2022/05/23 03:05:56;;;;;;;8.38;2.33;;;22.40;96.50;;;;;;5036235;28;20127;-73
2022/05/23 03:08:25;;;;;;;5.18;2.67;;;22.40;96.70;;;;;;5033466;28;20063;-72
2022/05/23 03:10:52;;;;;;;7.25;3.03;;;22.30;97.50;;;;;;5054443;28;20042;-73
2022/05/23 03:13:18;;;;;;;5.97;2.67;;;22.30;97.50;;;;;;5033412;28;20437;-73
2022/05/23 03:15:44;;;;;;;6.50;2.50;;;22.30;97.50;;;;;;5025808;28;20033;-73
2022/05/23 03:18:10;;;;;;;7.93;2.67;;;22.30;97.30;;;;;;5020394;28;20105;-72
2022/05/23 03:20:37;;;;;;;8.52;2.65;;;22.30;97.40;;;;;;5036679;28;20055;-73
2022/05/23 03:28:34;;;;;;;9.35;3.47;;;22.40;99.90;;;;;;5025465;28;20547;-73
2022/05/23 03:31:00;;;;;;;10.45;3.80;;;22.30;99.90;;;;;;5038074;28;20034;-73
2022/05/23 03:33:27;;;;;;;7.43;3.00;;;22.30;99.90;;;;;;5020550;28;20045;-72
2022/05/23 03:35:53;;;;;;;7.28;3.40;;;22.20;99.90;;;;;;5015878;28;20046;-73
2022/05/23 03:38:20;;;;;;;8.52;3.72;;;22.20;99.90;;;;;;5019495;28;20033;-73
2022/05/23 03:40:46;;;;;;;7.50;3.05;;;22.20;99.90;;;;;;5020129;28;20164;-72
2022/05/23 03:43:14;;;;;;;9.18;3.22;;;22.10;99.90;;;;;;5019473;28;20513;-73
2022/05/23 03:45:41;;;;;;;8.13;2.67;;;22.10;99.90;;;;;;5015829;28;20494;-73
2022/05/23 03:48:08;;;;;;;9.10;3.30;;;22.10;99.90;;;;;;5034854;28;20038;-72
2022/05/23 03:50:36;;;;;;;8.60;3.28;;;22.00;99.90;;;;;;5017479;28;20050;-72
2022/05/23 03:53:03;;;;;;;8.68;3.70;;;21.90;99.90;;;;;;5022258;28;20133;-72
2022/05/23 03:55:30;;;;;;;11.13;4.20;;;21.90;99.90;;;;;;5018060;28;20543;-72
2022/05/23 03:57:56;;;;;;;12.70;4.03;;;21.80;99.90;;;;;;5016561;28;20081;-72
2022/05/23 04:00:23;;;;;;;10.63;3.35;;;21.80;99.90;;;;;;5022432;28;20048;-73
2022/05/23 04:02:49;;;;;;;9.07;3.50;;;21.80;99.90;;;;;;5021400;28;20465;-73
2022/05/23 04:05:17;;;;;;;8.70;3.42;;;21.70;99.90;;;;;;5013895;28;20045;-72
2022/05/23 04:07:44;;;;;;;9.52;3.72;;;21.80;99.90;;;;;;5022151;28;20039;-73
2022/05/23 04:10:16;;;;;;;9.43;3.58;;;21.70;99.90;;;;;;5014795;28;20112;-72
2022/05/23 04:12:43;;;;;;;6.32;3.03;;;21.70;99.90;;;;;;5027447;28;20121;-72
2022/05/23 04:15:10;;;;;;;9.05;3.53;;;21.60;99.90;;;;;;5025490;28;20040;-72
2022/05/23 04:17:36;;;;;;;9.27;3.17;;;21.60;99.90;;;;;;5014526;28;20041;-72
2022/05/23 04:20:03;;;;;;;5.82;3.17;;;21.60;99.90;;;;;;5021422;28;20092;-74
2022/05/23 04:22:31;;;;;;;7.82;3.28;;;21.50;99.90;;;;;;5053630;28;20060;-72
2022/05/23 04:24:57;;;;;;;9.43;3.40;;;21.60;99.90;;;;;;5055182;28;20034;-71
2022/05/23 04:27:24;;;;;;;8.23;3.40;;;21.60;99.90;;;;;;5021738;28;20489;-72
2022/05/23 04:29:50;;;;;;;12.23;3.72;;;21.60;99.90;;;;;;5025727;28;20130;-72
2022/05/23 04:35:12;;;;;;;12.43;7.60;;;21.60;99.90;;;;;;5023531;28;20099;-74
2022/05/23 04:37:39;;;;;;;7.43;3.67;;;21.60;99.90;;;;;;5036796;28;20450;-73
2022/05/23 04:40:06;;;;;;;8.68;3.40;;;21.60;99.90;;;;;;5025896;28;20038;-73
2022/05/23 04:42:33;;;;;;;6.18;3.33;;;21.60;99.90;;;;;;5025354;28;20045;-74
2022/05/23 04:44:59;;;;;;;7.93;3.63;;;21.60;99.90;;;;;;5035951;28;20644;-73
2022/05/23 04:50:10;;;;;;;10.82;3.85;;;21.50;99.90;;;;;;5028612;28;20038;-73
2022/05/23 04:52:36;;;;;;;6.03;3.17;;;21.50;99.90;;;;;;5027804;28;20037;-73
2022/05/23 04:55:03;;;;;;;8.85;3.50;;;21.50;99.90;;;;;;5043735;28;20048;-73
2022/05/23 04:57:29;;;;;;;9.00;4.10;;;21.50;99.90;;;;;;5052345;28;20453;-73
2022/05/23 04:59:56;;;;;;;10.18;3.60;;;21.50;99.90;;;;;;5020323;28;20057;-73
2022/05/23 05:02:23;;;;;;;9.57;3.65;;;21.50;99.90;;;;;;5021702;28;20045;-72
2022/05/23 05:04:49;;;;;;;8.35;3.72;;;21.60;99.90;;;;;;5037758;28;20132;-73
2022/05/23 05:07:15;;;;;;;15.18;3.92;;;21.60;99.90;;;;;;5025052;28;20045;-73
2022/05/23 05:09:42;;;;;;;8.75;3.80;;;21.70;99.90;;;;;;5021720;28;20148;-72
2022/05/23 05:12:08;;;;;;;8.98;3.33;;;21.70;99.90;;;;;;5021831;28;20045;-73
2022/05/23 05:14:34;;;;;;;11.68;4.10;;;21.70;99.90;;;;;;5028734;28;20105;-73
2022/05/23 05:17:02;;;;;;;8.07;4.22;;;21.70;99.90;;;;;;5039858;28;20104;-72
2022/05/23 05:19:28;;;;;;;8.25;3.70;;;21.80;99.90;;;;;;5028262;28;20513;-72
2022/05/23 05:21:55;;;;;;;12.23;4.38;;;21.80;99.90;;;;;;5025376;28;20042;-73
2022/05/23 05:24:22;;;;;;;11.32;5.18;;;21.90;99.90;;;;;;5005905;28;20045;-73
2022/05/23 05:26:48;;;;;;;11.65;4.70;;;22.00;99.90;;;;;;5020943;28;20042;-73
2022/05/23 05:29:14;;;;;;;9.38;4.13;;;22.00;99.90;;;;;;5036812;28;20042;-73
2022/05/23 05:31:46;;;;;;;9.80;4.07;;;22.00;99.90;;;;;;5020412;28;20050;-73
2022/05/23 05:34:39;;;;;;;10.90;4.25;;;22.00;99.90;;;;;;5008818;28;20052;-73
2022/05/23 05:37:12;;;;;;;9.50;4.50;;;22.00;99.90;;;;;;5008869;28;20067;-73
2022/05/23 05:39:40;;;;;;;12.10;5.15;;;22.10;99.90;;;;;;5021796;28;20069;-72
2022/05/23 05:42:13;;;;;;;11.02;5.45;;;22.00;99.90;;;;;;5036644;28;20048;-73
2022/05/23 05:44:43;;;;;;;10.73;5.53;;;22.10;99.90;;;;;;5020949;28;20041;-73
2022/05/23 05:47:12;;;;;;;16.42;5.68;;;22.10;99.90;;;;;;5036952;28;20037;-73
2022/05/23 05:49:42;;;;;;;13.77;5.30;;;22.10;99.90;;;;;;5020736;28;20049;-72
2022/05/23 05:52:10;;;;;;;11.77;4.88;;;22.30;99.90;;;;;;5023892;28;20088;-72
2022/05/23 05:54:39;;;;;;;8.82;5.13;;;22.30;99.90;;;;;;5020859;28;20042;-73
2022/05/23 05:57:08;;;;;;;12.32;4.97;;;22.30;99.90;;;;;;5037450;28;20060;-74
2022/05/23 05:59:35;;;;;;;13.10;5.20;;;22.30;99.90;;;;;;5021771;28;20416;-72
2022/05/23 06:02:02;;;;;;;16.67;5.88;;;22.30;99.90;;;;;;5020519;28;20038;-72
2022/05/23 06:04:28;;;;;;;18.80;7.22;;;22.20;99.90;;;;;;5019263;28;20064;-73
2022/05/23 06:12:23;;;;;;;13.85;7.72;;;22.10;99.90;;;;;;5023551;28;20056;-73
2022/05/23 06:14:48;;;;;;;16.08;7.57;;;22.10;99.90;;;;;;5021089;28;20424;-74
2022/05/23 06:17:15;;;;;;;14.32;8.32;;;22.10;99.90;;;;;;5052570;28;20045;-73
2022/05/23 06:19:43;;;;;;;15.40;7.80;;;22.10;99.90;;;;;;5019088;28;20132;-74
2022/05/23 06:22:11;;;;;;;14.80;8.00;;;22.10;99.90;;;;;;5032116;28;20100;-74
2022/05/23 06:24:37;;;;;;;17.58;7.57;;;22.20;99.90;;;;;;5023183;28;20072;-75
2022/05/23 06:27:05;;;;;;;15.68;7.47;;;22.30;99.90;;;;;;5019418;28;20127;-74
2022/05/23 06:29:31;;;;;;;18.60;8.63;;;22.30;99.90;;;;;;5023557;28;20140;-73
2022/05/23 06:31:57;;;;;;;16.08;7.88;;;22.30;99.90;;;;;;5018081;28;20046;-73
2022/05/23 06:34:23;;;;;;;12.88;7.38;;;22.40;99.90;;;;;;5033866;28;20064;-73
2022/05/23 06:36:49;;;;;;;15.15;7.57;;;22.40;99.90;;;;;;5024982;28;20412;-73
2022/05/23 06:39:16;;;;;;;18.48;7.88;;;22.50;99.90;;;;;;5017406;28;20065;-72
2022/05/23 06:41:41;;;;;;;12.88;7.07;;;22.50;99.90;;;;;;5018945;28;20043;-72
2022/05/23 06:44:08;;;;;;;17.10;7.07;;;22.60;99.90;;;;;;5044534;28;20124;-74
2022/05/23 06:46:34;;;;;;;14.65;7.60;;;22.70;99.90;;;;;;5018734;28;20076;-73
2022/05/23 06:49:00;;;;;;;17.45;7.18;;;22.70;99.90;;;;;;5019131;28;20073;-73
2022/05/23 06:51:26;;;;;;;20.05;7.45;;;22.80;99.90;;;;;;5025432;28;20034;-73
2022/05/23 06:53:56;;;;;;;18.88;8.07;;;22.90;99.90;;;;;;5021512;28;20046;-72
2022/05/23 06:56:23;;;;;;;16.70;7.20;;;23.00;99.90;;;;;;5019529;28;20045;-73
2022/05/23 06:58:49;;;;;;;13.85;6.72;;;22.90;99.90;;;;;;5017737;28;20048;-73
2022/05/23 07:01:16;;;;;;;17.05;7.53;;;22.90;99.90;;;;;;5012294;28;20408;-73
2022/05/23 07:03:42;;;;;;;20.25;7.35;;;23.00;99.90;;;;;;4996667;28;20061;-73
2022/05/23 07:14:24;;;;;;;17.25;7.57;;;23.20;99.90;;;;;;5028514;28;20044;-73
2022/05/23 07:16:50;;;;;;;15.50;7.53;;;23.10;99.90;;;;;;5021393;28;20469;-73
2022/05/23 07:19:16;;;;;;;17.23;7.40;;;23.10;99.90;;;;;;5020645;28;20026;-72
2022/05/23 07:21:42;;;;;;;26.10;8.07;;;23.10;99.90;;;;;;5023237;28;20030;-73
2022/05/23 07:24:09;;;;;;;19.10;7.45;;;23.20;99.90;;;;;;5030614;28;20076;-74
2022/05/23 07:26:37;;;;;;;15.60;7.68;;;23.30;99.90;;;;;;5006967;28;20120;-73
2022/05/23 07:29:04;;;;;;;18.65;8.02;;;23.30;99.90;;;;;;5028230;28;20050;-71
2022/05/23 07:31:30;;;;;;;20.73;7.93;;;23.40;99.90;;;;;;5008901;28;20057;-73
2022/05/23 07:33:58;;;;;;;17.52;7.68;;;23.40;99.90;;;;;;5010422;28;20041;-72
2022/05/23 07:36:25;;;;;;;20.17;7.60;;;23.50;99.90;;;;;;5008202;28;20437;-73
2022/05/23 07:38:51;;;;;;;19.65;7.85;;;23.50;99.90;;;;;;5023257;28;20038;-72
2022/05/23 07:41:17;;;;;;;20.10;8.07;;;23.60;99.90;;;;;;5040832;28;20049;-73
2022/05/23 07:43:43;;;;;;;16.15;8.00;;;23.50;99.90;;;;;;5006592;28;20060;-73
2022/05/23 07:46:13;;;;;;;13.48;7.10;;;23.60;99.90;;;;;;5011927;28;20072;-74
2022/05/23 07:48:48;;;;;;;15.05;6.70;;;23.70;99.90;;;;;;5023680;28;20038;-73
2022/05/23 07:51:17;;;;;;;16.00;7.65;;;23.80;99.90;;;;;;5010592;28;20045;-74
2022/05/23 08:02:18;;;;;;;15.07;6.82;;;24.00;99.90;;;;;;4991699;28;20428;-72
2022/05/23 08:04:44;;;;;;;16.70;7.28;;;24.10;99.90;;;;;;5022767;28;20042;-73
2022/05/23 08:07:11;;;;;;;16.60;7.50;;;24.10;99.90;;;;;;5044806;28;20409;-72
2022/05/23 08:09:41;;;;;;;19.50;7.38;;;24.10;99.90;;;;;;5029161;28;20482;-72
2022/05/23 08:12:09;;;;;;;16.95;6.80;;;24.30;99.90;;;;;;5005318;28;20373;-73
2022/05/23 08:14:34;;;;;;;14.27;7.20;;;24.30;99.90;;;;;;5008382;28;20057;-73
2022/05/23 08:17:01;;;;;;;15.90;7.63;;;24.40;99.90;;;;;;4996013;28;20419;-73
2022/05/23 08:19:27;;;;;;;21.98;7.38;;;24.50;99.90;;;;;;4995569;28;20068;-74
2022/05/23 08:21:56;;;;;;;22.27;7.22;;;24.50;99.90;;;;;;4995272;28;20101;-72
2022/05/23 08:24:23;;;;;;;20.50;8.00;;;24.50;99.90;;;;;;4993189;28;20038;-73
2022/05/23 08:26:50;;;;;;;16.27;7.45;;;24.60;99.90;;;;;;4989913;28;20824;-72
2022/05/23 08:29:17;;;;;;;14.48;6.95;;;24.60;99.90;;;;;;4993623;28;20052;-73
2022/05/23 08:31:44;;;;;;;18.55;7.38;;;24.50;99.90;;;;;;4989454;28;20520;-72
2022/05/23 08:34:11;;;;;;;17.08;7.00;;;24.60;99.90;;;;;;4990730;28;20042;-73
2022/05/23 08:36:37;;;;;;;16.23;7.85;;;24.60;99.90;;;;;;5024011;28;20099;-73
2022/05/23 08:39:05;;;;;;;16.52;7.15;;;24.70;99.90;;;;;;4990987;28;20049;-73
2022/05/23 08:41:34;;;;;;;19.65;7.25;;;24.80;99.90;;;;;;5022216;28;21535;-73
2022/05/23 08:44:35;;;;;;;16.73;7.05;;;24.80;99.90;;;;;;4993901;28;20048;-72
2022/05/23 08:47:02;;;;;;;16.48;7.40;;;24.90;99.90;;;;;;4990145;28;20437;-72
2022/05/23 08:49:46;;;;;;;15.95;7.57;;;25.00;99.90;;;;;;4993506;28;20043;-72
2022/05/23 08:52:35;;;;;;;18.35;7.20;;;25.10;99.90;;;;;;4995368;28;20089;-73
2022/05/23 08:55:04;;;;;;;18.50;7.57;;;25.20;99.90;;;;;;4987890;28;20030;-73
2022/05/23 08:57:50;;;;;;;20.25;7.18;;;25.20;99.90;;;;;;4988513;28;20046;-73
2022/05/23 09:00:24;;;;;;;20.67;7.13;;;25.30;99.90;;;;;;4988251;28;20076;-73
2022/05/23 09:03:01;;;;;;;15.55;7.60;;;25.30;99.90;;;;;;4993248;28;20080;-73
2022/05/23 09:05:32;;;;;;;15.35;7.10;;;25.50;99.90;;;;;;4994392;28;20099;-73
2022/05/23 09:08:14;;;;;;;16.08;7.30;;;25.60;99.90;;;;;;4991191;28;20050;-73
2022/05/23 09:10:55;;;;;;;17.63;7.65;;;25.50;99.90;;;;;;5019852;28;20034;-74
2022/05/23 09:13:23;;;;;;;15.43;6.72;;;25.50;99.90;;;;;;5001245;28;20501;-73
2022/05/23 09:15:53;;;;;;;18.65;6.78;;;25.30;99.90;;;;;;5013512;28;20037;-73
2022/05/23 09:18:27;;;;;;;15.15;6.75;;;25.50;99.90;;;;;;4996190;28;20453;-73
2022/05/23 09:20:58;;;;;;;15.25;7.57;;;25.60;99.90;;;;;;4991651;28;20037;-72
2022/05/23 09:23:26;;;;;;;22.42;6.68;;;25.50;99.90;;;;;;4983826;28;20519;-73
2022/05/23 09:25:54;;;;;;;16.75;6.78;;;25.50;99.90;;;;;;4991482;28;20447;-72
2022/05/23 09:28:32;;;;;;;18.52;7.07;;;25.50;99.90;;;;;;4987769;28;20038;-73
2022/05/23 09:31:03;;;;;;;15.82;6.57;;;25.50;99.90;;;;;;4990285;28;20083;-73
2022/05/23 09:33:31;;;;;;;19.50;6.78;;;25.60;99.90;;;;;;4994654;28;20034;-74
2022/05/23 09:36:26;;;;;;;19.83;7.43;;;25.90;99.90;;;;;;4995824;28;20053;-74
2022/05/23 09:38:52;;;;;;;14.82;6.75;;;26.10;99.90;;;;;;5000255;28;20080;-72
2022/05/23 09:49:53;;;;;;;20.80;6.63;;;26.10;99.90;;;;;;4998056;28;20065;-73
2022/05/23 09:52:27;;;;;;;11.75;7.25;;;26.20;99.90;;;;;;5000995;28;20372;-73
2022/05/23 09:55:01;;;;;;;19.23;7.20;;;26.10;99.90;;;;;;4998068;28;20031;-73
2022/05/23 09:57:36;;;;;;;17.55;6.80;;;26.10;99.90;;;;;;5015123;28;20122;-73
2022/05/23 10:00:18;;;;;;;15.07;6.53;;;26.10;99.90;;;;;;5043678;28;20591;-72
2022/05/23 10:02:59;;;;;;;13.98;6.80;;;26.30;99.90;;;;;;5014486;28;20064;-73
2022/05/23 10:05:28;;;;;;;16.77;6.95;;;26.40;99.90;;;;;;5051608;28;20051;-73
2022/05/23 10:08:01;;;;;;;18.60;7.07;;;26.10;99.90;;;;;;5051976;28;20489;-72
2022/05/23 10:10:36;;;;;;;20.58;6.82;;;26.10;99.90;;;;;;5007283;28;20041;-72
2022/05/23 10:13:36;;;;;;;16.27;7.07;;;26.50;99.90;;;;;;5021178;28;20052;-73
2022/05/23 10:16:08;;;;;;;13.63;5.93;;;26.40;99.90;;;;;;5016744;28;20092;-73
2022/05/23 10:18:45;;;;;;;18.60;6.65;;;26.60;99.90;;;;;;5019921;28;20041;-74
2022/05/23 10:21:27;;;;;;;16.02;6.43;;;26.20;99.90;;;;;;5032018;28;20037;-72
2022/05/23 10:24:31;;;;;;;15.80;6.00;;;26.30;99.90;;;;;;5029921;28;20037;-73
2022/05/23 10:27:06;;;;;;;15.23;7.07;;;26.20;99.90;;;;;;5022440;28;20078;-73
2022/05/23 10:29:53;;;;;;;13.75;6.38;;;26.40;99.90;;;;;;5035272;28;20034;-71
2022/05/23 10:32:51;;;;;;;17.25;7.35;;;26.40;99.90;;;;;;5033234;28;20034;-72
2022/05/23 10:35:28;;;;;;;12.98;5.68;;;26.30;99.90;;;;;;5023042;28;20044;-72
2022/05/23 10:42:07;;;;;;;18.38;6.70;;;26.20;99.90;;;;;;5025297;28;20068;-72
2022/05/23 10:43:29;;;;;;;13.73;5.93;;;26.50;99.90;;;;;;5002848;28;20084;-72
2022/05/23 10:45:57;;;;;;;12.82;6.18;;;26.80;99.90;;;;;;5000564;28;20096;-71
2022/05/23 10:48:36;;;;;;;15.52;6.20;;;26.90;99.90;;;;;;5000385;28;20089;-72
2022/05/23 10:51:08;;;;;;;15.73;6.15;;;26.90;99.90;;;;;;5000967;28;20089;-72
2022/05/23 10:53:58;;;;;;;12.63;5.50;;;27.00;99.90;;;;;;5050423;28;20523;-75
2022/05/23 10:56:35;;;;;;;13.40;6.10;;;27.20;99.90;;;;;;5008297;28;20026;-73
2022/05/23 10:59:12;;;;;;;16.10;6.25;;;26.50;99.90;;;;;;5045605;28;20091;-73
2022/05/23 11:02:10;;;;;;;13.57;6.05;;;26.90;99.90;;;;;;5049086;28;20045;-73
2022/05/23 11:05:04;;;;;;;22.25;7.20;;;27.00;99.90;;;;;;4999994;28;20042;-74
2022/05/23 11:07:34;;;;;;;22.02;7.57;;;26.60;99.90;;;;;;5013111;28;20042;-73
2022/05/23 11:10:17;;;;;;;17.25;7.22;;;26.90;99.90;;;;;;4998772;28;20038;-74
2022/05/23 11:12:53;;;;;;;20.50;7.63;;;27.30;99.90;;;;;;5050291;28;20034;-73
2022/05/23 11:15:41;;;;;;;14.60;6.65;;;27.50;99.90;;;;;;5048845;28;20494;-73
2022/05/23 11:18:20;;;;;;;13.98;6.60;;;27.00;99.90;;;;;;5005960;28;20030;-72
2022/05/23 11:20:50;;;;;;;18.52;7.38;;;27.60;99.90;;;;;;5020261;28;20038;-73
2022/05/23 11:23:32;;;;;;;17.42;6.53;;;27.50;99.90;;;;;;5004944;28;20049;-73
2022/05/23 11:26:04;;;;;;;;;;;27.70;99.90;;;;;;4990943;28;20121;-73
2022/05/23 11:34:37;;;;;;;11.80;6.43;;;28.60;99.90;;;;;;5010200;28;20044;-73
2022/05/23 11:37:45;;;;;;;13.15;6.53;;;28.60;99.90;;;;;;5007265;28;20103;-75
2022/05/23 11:40:40;;;;;;;17.00;6.32;;;28.20;99.90;;;;;;5007348;28;20038;-72
2022/05/23 11:43:18;;;;;;;14.10;6.55;;;28.70;99.90;;;;;;5010161;28;20128;-73
2022/05/23 11:46:05;;;;;;;15.32;6.00;;;28.90;99.90;;;;;;5007710;28;20107;-72
2022/05/23 11:48:39;;;;;;;16.05;6.55;;;28.60;99.90;;;;;;5009076;28;20034;-73
2022/05/23 11:51:16;;;;;;;15.38;6.60;;;28.90;99.90;;;;;;5008602;28;20041;-73
2022/05/23 11:53:55;;;;;;;13.25;6.53;;;28.50;99.90;;;;;;5027628;28;20043;-73
2022/05/23 11:56:43;;;;;;;14.73;6.68;;;29.00;99.90;;;;;;5022501;28;20120;-73
2022/05/23 11:59:30;;;;;;;16.52;6.50;;;29.10;99.90;;;;;;5019147;28;20068;-73
2022/05/23 12:02:12;;;;;;;15.27;5.72;;;29.00;99.90;;;;;;5012249;28;20021;-73
2022/05/23 12:04:52;;;;;;;16.73;6.60;;;29.60;99.90;;;;;;5006271;28;20033;-73
2022/05/23 12:07:37;;;;;;;10.93;5.72;;;29.50;99.90;;;;;;5024080;28;20095;-74
2022/05/23 12:10:22;;;;;;;12.80;6.30;;;29.00;99.90;;;;;;5005902;28;20052;-73
2022/05/23 12:12:53;;;;;;;14.23;6.00;;;28.90;99.90;;;;;;5019484;28;20132;-74
2022/05/23 12:15:44;;;;;;;14.60;6.18;;;28.90;99.90;;;;;;5016653;28;20144;-72
2022/05/23 12:18:23;;;;;;;15.27;6.22;;;29.00;99.90;;;;;;5016482;28;20065;-73
2022/05/23 12:20:53;;;;;;;9.75;5.38;;;29.10;99.80;;;;;;5034123;28;20042;-73
2022/05/23 12:24:10;;;;;;;13.90;6.03;;;28.90;99.90;;;;;;5020134;28;20398;-73
2022/05/23 12:26:36;;;;;;;10.13;5.55;;;28.40;99.90;;;;;;5010029;28;20045;-73
2022/05/23 12:29:23;;;;;;;12.50;5.72;;;29.50;99.90;;;;;;5008893;28;20200;-72
2022/05/23 12:32:11;;;;;;;16.42;5.78;;;30.20;98.80;;;;;;5038936;28;20041;-74
2022/05/23 12:34:51;;;;;;;12.15;5.68;;;30.10;98.80;;;;;;5022482;28;20040;-74
2022/05/23 12:37:26;;;;;;;14.57;5.72;;;30.50;98.50;;;;;;5037962;28;20073;-73
2022/05/23 12:40:20;;;;;;;11.63;5.57;;;30.90;98.30;;;;;;5037797;28;20041;-73
2022/05/23 12:43:26;;;;;;;10.68;5.13;;;31.00;97.60;;;;;;5022881;28;20473;-73
2022/05/23 12:46:29;;;;;;;13.57;5.97;;;30.80;97.80;;;;;;5054836;28;20128;-72
2022/05/23 12:49:20;;;;;;;14.68;5.60;;;31.30;97.40;;;;;;5037069;28;20477;-76
2022/05/23 12:52:09;;;;;;;11.98;5.07;;;31.40;97.20;;;;;;5038782;28;20061;-72
2022/05/23 12:54:38;;;;;;;13.85;5.00;;;31.60;96.80;;;;;;5023294;28;20041;-73
2022/05/23 12:57:29;;;;;;;12.48;5.10;;;31.10;97.00;;;;;;5023491;28;20029;-73
2022/05/23 13:00:06;;;;;;;10.82;5.20;;;31.60;97.00;;;;;;5043760;28;20076;-74
2022/05/23 13:02:35;;;;;;;13.20;5.80;;;31.70;96.80;;;;;;4994167;28;20083;-74
2022/05/23 13:05:13;;;;;;;14.95;5.80;;;31.70;96.50;;;;;;5028774;28;20042;-75
2022/05/23 13:07:51;;;;;;;11.00;5.03;;;31.50;96.80;;;;;;5028080;28;21067;-72
2022/05/23 13:10:36;;;;;;;14.05;5.43;;;31.90;96.60;;;;;;5012222;28;20045;-75
2022/05/23 13:13:12;;;;;;;12.35;5.53;;;31.40;96.80;;;;;;5026544;28;20052;-76
2022/05/23 13:15:38;;;;;;;9.40;5.10;;;31.40;96.70;;;;;;5033187;28;20041;-78
2022/05/23 13:23:59;;;;;;;17.10;5.20;;;30.40;97.30;;;;;;5011220;28;20209;-75
2022/05/23 13:26:28;;;;;;;12.43;5.25;;;30.50;97.40;;;;;;5012578;28;20049;-77
2022/05/23 13:28:54;;;;;;;11.73;5.35;;;30.20;97.80;;;;;;5004392;28;20072;-77
2022/05/23 13:31:23;;;;;;;15.68;5.20;;;30.20;97.30;;;;;;5012427;28;20497;-76
2022/05/23 13:33:49;;;;;;;9.48;4.60;;;30.30;97.40;;;;;;5012512;28;20520;-77
2022/05/23 13:36:15;;;;;;;13.73;5.00;;;30.00;97.60;;;;;;5051922;28;20037;-75
2022/05/23 13:38:56;;;;;;;12.07;4.72;;;30.80;97.10;;;;;;5049064;28;20108;-77
2022/05/23 13:41:29;;;;;;;13.77;5.13;;;30.80;97.20;;;;;;5010915;28;20037;-76
2022/05/23 13:43:56;;;;;;;8.68;4.43;;;30.20;97.60;;;;;;5016756;28;20042;-76
2022/05/23 13:47:09;;;;;;;10.98;4.82;;;30.70;97.10;;;;;;5012577;28;21563;-77
2022/05/23 13:49:46;;;;;;;12.68;4.93;;;30.60;97.30;;;;;;5007229;28;20075;-77
2022/05/23 13:52:36;;;;;;;13.55;5.45;;;29.70;97.40;;;;;;5015315;28;20806;-76
2022/05/23 13:55:09;;;;;;;12.20;4.72;;;28.60;99.10;;;;;;5015405;28;20042;-76
2022/05/23 13:57:47;;;;;;;12.95;4.90;;;29.50;98.70;;;;;;5013571;28;20060;-75
2022/05/23 14:00:20;;;;;;;11.20;5.10;;;29.20;98.60;;;;;;5017422;28;20095;-76
2022/05/23 14:03:02;;;;;;;13.20;4.95;;;28.80;98.60;;;;;;5024801;28;20469;-77
2022/05/23 14:05:30;;;;;;;12.18;5.00;;;29.60;98.40;;;;;;4998641;28;20473;-77
2022/05/23 14:07:58;;;;;;;15.43;5.00;;;29.60;98.10;;;;;;5012840;28;20140;-76
2022/05/23 14:10:30;;;;;;;14.10;5.10;;;28.80;98.80;;;;;;5014435;28;20046;-78